Constanta, Romania
Current Conditions -  °F | °C
As of 8:00 PM on Tuesday 21 Oct 2014 (Local Time) from LRCK Reporting Station
Clear Clear  
Wind Chill: 64°   Ceiling: Unl
Heat Index: 64°   Visibility: 6mi
Dew Point: 63°   Wind: 3mph
Humidity: 94%   Direction: 130°SE
Pressure: 29.77"   Gusts: NA
Location:  44.18°N, 28.63°E
Report Text: LRCK 211700Z 13003KT CAVOK 18/17 Q1008 NOSIG
Loading
Personal Weather Stations






























Interactive Weather Map
Tropical Storm Tracking
New forecast layout! Learn more

10-Day Weather Forecast

Advertisements
Track Severe Weather on mobile